Time;durP1;ratioP1;P1;durP2;ratioP2;P2;SDS_P1;SDS_P2;PMS_P1;PMS_P2;Temp;Humidity;BMP_temperature;BMP_pressure;BME280_temperature;BME280_humidity;BME280_pressure;Samples;Min_cycle;Max_cycle;Signal;HPM_P1;HPM_P2
2022/03/03 00:01:18;;;;;;;23.90;11.23;;;;;;;0.81;65.96;101939.41;5056627;22;20052;-86
2022/03/03 00:03:43;;;;;;;18.75;10.52;;;;;;;0.79;66.19;101932.28;5017240;23;20046;-73
2022/03/03 00:06:09;;;;;;;21.63;10.98;;;;;;;0.77;65.71;101925.16;4996068;28;20458;-69
2022/03/03 00:08:36;;;;;;;21.80;11.52;;;;;;;0.77;65.29;101927.84;5008274;28;20072;-74
2022/03/03 00:11:04;;;;;;;24.65;11.10;;;;;;;0.78;65.25;101934.09;4989485;28;20456;-73
2022/03/03 00:13:31;;;;;;;21.92;11.07;;;;;;;0.80;65.34;101929.59;5005822;28;20463;-73
2022/03/03 00:15:56;;;;;;;21.52;11.05;;;;;;;0.79;65.93;101927.81;5018571;28;20048;-74
2022/03/03 00:18:22;;;;;;;24.50;11.50;;;;;;;0.75;65.20;101923.44;4991397;28;20041;-74
2022/03/03 00:20:48;;;;;;;19.95;11.27;;;;;;;0.70;66.44;101927.94;4996328;28;20469;-74
2022/03/03 00:23:13;;;;;;;18.00;10.68;;;;;;;0.62;68.39;101922.72;5017422;28;20038;-74
2022/03/03 00:25:39;;;;;;;19.73;10.98;;;;;;;0.54;67.54;101927.28;5009332;28;20044;-73
2022/03/03 00:28:05;;;;;;;20.73;11.85;;;;;;;0.48;66.63;101930.06;5009247;28;20112;-67
2022/03/03 00:30:30;;;;;;;19.33;11.18;;;;;;;0.44;67.05;101922.97;4975115;28;20555;-68
2022/03/03 00:32:56;;;;;;;25.10;11.82;;;;;;;0.42;67.10;101932.78;5009235;28;20025;-74
2022/03/03 00:35:21;;;;;;;21.70;11.73;;;;;;;0.39;67.10;101930.16;5009463;28;20029;-74
2022/03/03 00:37:47;;;;;;;20.05;10.80;;;;;;;0.37;67.99;101926.63;5009218;28;20042;-66
2022/03/03 00:40:13;;;;;;;22.73;10.93;;;;;;;0.38;66.65;101928.41;5010936;28;20022;-74
2022/03/03 00:42:39;;;;;;;21.42;10.60;;;;;;;0.41;66.59;101920.31;4992221;28;20038;-74
2022/03/03 00:45:05;;;;;;;19.00;9.82;;;;;;;0.45;66.70;101916.69;5002319;28;20618;-66
2022/03/03 00:47:31;;;;;;;16.67;10.05;;;;;;;0.44;66.40;101921.16;5006903;28;20038;-73
2022/03/03 00:49:57;;;;;;;21.77;11.75;;;;;;;0.45;66.30;101914.91;5025091;28;20041;-66
2022/03/03 00:52:22;;;;;;;21.58;10.65;;;;;;;0.45;66.06;101922.06;5009421;28;20041;-73
2022/03/03 00:54:48;;;;;;;18.80;10.20;;;;;;;0.42;66.31;101916.72;5009609;28;20042;-73
2022/03/03 00:57:13;;;;;;;22.98;11.27;;;;;;;0.42;66.30;101916.72;5010372;28;20167;-73
2022/03/03 00:59:38;;;;;;;26.77;11.18;;;;;;;0.42;65.98;101912.28;5012539;28;20121;-68
2022/03/03 01:02:04;;;;;;;22.20;11.40;;;;;;;0.41;66.41;101915.84;5008978;28;20054;-67
2022/03/03 01:04:29;;;;;;;24.70;11.50;;;;;;;0.38;66.15;101901.66;4985487;28;20437;-66
2022/03/03 01:06:54;;;;;;;24.77;10.75;;;;;;;0.33;66.18;101900.81;4992887;28;20045;-74
2022/03/03 01:09:20;;;;;;;19.08;10.77;;;;;;;0.33;66.04;101911.53;4997391;28;20034;-66
2022/03/03 01:11:45;;;;;;;17.80;10.05;;;;;;;0.31;66.07;101913.31;5009664;28;20029;-68
2022/03/03 01:14:11;;;;;;;25.00;10.85;;;;;;;0.28;66.55;101914.25;4990723;28;20109;-68
2022/03/03 01:16:36;;;;;;;22.75;12.07;;;;;;;0.25;66.40;101914.28;5006587;28;20053;-73
2022/03/03 01:19:02;;;;;;;23.10;10.70;;;;;;;0.23;66.41;101908.97;5003267;28;20042;-67
2022/03/03 01:21:27;;;;;;;18.45;10.38;;;;;;;0.20;66.48;101906.31;4987669;28;20097;-67
2022/03/03 01:23:53;;;;;;;22.63;11.25;;;;;;;0.18;66.48;101907.22;5004660;28;20056;-69
2022/03/03 01:26:19;;;;;;;22.50;10.35;;;;;;;0.13;66.25;101903.72;4998650;28;20042;-73
2022/03/03 01:28:44;;;;;;;22.33;10.95;;;;;;;0.13;66.50;101903.72;4992353;28;20090;-67
2022/03/03 01:31:10;;;;;;;18.30;10.02;;;;;;;0.12;66.54;101905.53;4998271;28;20072;-74
2022/03/03 01:33:36;;;;;;;20.27;9.85;;;;;;;0.10;66.99;101898.44;5006969;28;20022;-67
2022/03/03 01:36:01;;;;;;;24.73;11.85;;;;;;;0.06;67.57;101897.59;4996583;28;20398;-67
2022/03/03 01:38:27;;;;;;;22.02;12.25;;;;;;;0.01;67.80;101895.88;5000798;28;20037;-67
2022/03/03 01:40:52;;;;;;;25.08;11.98;;;;;;;-0.03;67.72;101890.56;4996807;28;20026;-74
2022/03/03 01:43:17;;;;;;;20.05;11.18;;;;;;;-0.07;67.73;101885.25;4981937;28;20035;-67
2022/03/03 01:45:42;;;;;;;25.45;12.38;;;;;;;-0.11;68.34;101878.16;4985075;28;20053;-67
2022/03/03 01:48:08;;;;;;;23.08;11.52;;;;;;;-0.13;67.85;101885.34;5007985;28;20042;-66
2022/03/03 01:50:33;;;;;;;21.23;12.05;;;;;;;-0.16;68.42;101877.34;5000389;28;20185;-72
2022/03/03 01:52:59;;;;;;;27.30;12.07;;;;;;;-0.20;68.45;101876.47;4977004;28;20042;-67
2022/03/03 01:55:25;;;;;;;22.23;11.43;;;;;;;-0.24;68.42;101876.53;5004023;28;20048;-67
2022/03/03 01:57:51;;;;;;;21.42;11.57;;;;;;;-0.27;68.54;101880.16;5004529;28;20044;-74
2022/03/03 02:00:18;;;;;;;21.20;11.02;;;;;;;-0.32;69.02;101869.50;4970382;28;20070;-67
2022/03/03 02:02:43;;;;;;;22.23;11.45;;;;;;;-0.37;69.40;101863.31;5006815;28;20041;-67
2022/03/03 02:05:09;;;;;;;21.52;10.45;;;;;;;-0.38;69.30;101858.84;5001376;28;20559;-74
2022/03/03 02:07:35;;;;;;;21.55;11.70;;;;;;;-0.38;69.64;101858.84;4974587;28;20431;-67
2022/03/03 02:10:02;;;;;;;26.25;11.88;;;;;;;-0.43;70.09;101858.03;4981370;28;20401;-74
2022/03/03 02:12:28;;;;;;;22.80;11.25;;;;;;;-0.46;70.38;101854.53;4985931;28;20049;-75
2022/03/03 02:14:54;;;;;;;21.10;11.98;;;;;;;-0.48;69.37;101853.63;4988945;28;20223;-74
2022/03/03 02:17:19;;;;;;;24.38;11.25;;;;;;;-0.49;69.83;101858.09;5009019;28;20045;-74
2022/03/03 02:19:45;;;;;;;19.83;11.18;;;;;;;-0.50;70.28;101850.97;5006645;28;20053;-70
2022/03/03 02:22:10;;;;;;;21.23;11.75;;;;;;;-0.53;69.70;101849.22;5000549;28;20120;-67
2022/03/03 02:24:37;;;;;;;24.55;11.80;;;;;;;-0.56;69.72;101851.03;5005255;28;20064;-66
2022/03/03 02:27:04;;;;;;;23.30;11.55;;;;;;;-0.60;69.86;101842.19;5007719;28;20042;-73
2022/03/03 02:29:29;;;;;;;24.33;11.88;;;;;;;-0.65;72.24;101841.34;4991673;28;20038;-67
2022/03/03 02:31:55;;;;;;;25.02;11.85;;;;;;;-0.70;72.30;101850.28;5008713;28;20038;-67
2022/03/03 02:34:21;;;;;;;22.38;11.18;;;;;;;-0.72;71.39;101847.63;5006646;28;20396;-66
2022/03/03 02:36:47;;;;;;;25.65;11.68;;;;;;;-0.77;70.50;101847.69;4998651;28;20050;-68
2022/03/03 02:39:12;;;;;;;20.63;11.35;;;;;;;-0.73;71.02;101845.00;5001755;28;20045;-66
2022/03/03 02:41:37;;;;;;;20.67;10.93;;;;;;;-0.73;70.40;101855.69;4967538;28;20605;-73
2022/03/03 02:44:04;;;;;;;21.17;11.93;;;;;;;-0.78;71.30;101851.25;4991878;28;20801;-73
2022/03/03 02:46:30;;;;;;;28.00;12.27;;;;;;;-0.82;72.97;101848.63;4992108;28;20069;-73
2022/03/03 02:48:56;;;;;;;23.15;11.70;;;;;;;-0.86;71.60;101847.78;4994336;28;20029;-72
2022/03/03 02:51:22;;;;;;;21.20;10.95;;;;;;;-0.85;71.75;101848.66;4990323;28;20034;-72
2022/03/03 02:53:48;;;;;;;26.13;12.02;;;;;;;-0.87;71.39;101840.66;4985059;28;20046;-66
2022/03/03 02:56:13;;;;;;;23.08;11.05;;;;;;;-0.86;70.72;101842.44;4997145;28;20113;-72
2022/03/03 02:58:39;;;;;;;22.80;11.57;;;;;;;-0.88;70.71;101830.88;4991366;28;20125;-66
2022/03/03 03:01:05;;;;;;;24.00;12.35;;;;;;;-0.90;71.67;101835.34;4981207;28;20033;-65
2022/03/03 03:03:31;;;;;;;23.50;11.38;;;;;;;-0.92;72.44;101837.16;4996134;28;20058;-72
2022/03/03 03:05:56;;;;;;;24.90;12.57;;;;;;;-0.98;73.39;101837.22;5001771;28;20135;-72
2022/03/03 03:08:22;;;;;;;21.33;11.93;;;;;;;-0.98;73.35;101841.66;5008346;28;20493;-71
2022/03/03 03:10:47;;;;;;;25.58;11.98;;;;;;;-1.05;73.18;101832.81;5001859;28;20087;-71
2022/03/03 03:13:14;;;;;;;24.80;11.68;;;;;;;-1.06;72.67;101847.06;4999475;28;20109;-73
2022/03/03 03:15:44;;;;;;;21.98;11.13;;;;;;;-1.10;73.59;101839.97;4996829;28;20038;-66
2022/03/03 03:18:20;;;;;;;19.83;11.38;;;;;;;-1.13;73.31;101840.00;4981954;28;20448;-65
2022/03/03 03:20:49;;;;;;;22.60;12.18;;;;;;;-1.15;73.59;101833.78;4990864;28;20038;-66
2022/03/03 03:23:16;;;;;;;20.33;11.02;;;;;;;-1.18;74.67;101833.81;4994888;28;20045;-71
2022/03/03 03:25:45;;;;;;;21.30;12.40;;;;;;;-1.23;73.45;101825.84;5008643;28;20080;-71
2022/03/03 03:28:12;;;;;;;28.45;12.27;;;;;;;-1.23;73.46;101827.63;5000150;28;20031;-66
2022/03/03 03:30:38;;;;;;;31.08;12.23;;;;;;;-1.25;72.96;101821.44;4990607;28;20512;-69
2022/03/03 03:33:03;;;;;;;24.85;11.18;;;;;;;-1.27;73.18;101823.22;5007391;28;20062;-73
2022/03/03 03:35:29;;;;;;;24.63;12.57;;;;;;;-1.27;73.52;101818.75;4993944;28;20049;-74
2022/03/03 03:37:55;;;;;;;23.98;12.20;;;;;;;-1.25;74.15;101816.09;4997705;28;20388;-73
2022/03/03 03:40:21;;;;;;;22.10;11.77;;;;;;;-1.26;73.76;101817.84;4991968;28;20113;-73
2022/03/03 03:42:46;;;;;;;22.45;11.90;;;;;;;-1.29;74.45;101813.44;5007244;28;20022;-70
2022/03/03 03:45:13;;;;;;;22.27;11.23;;;;;;;-1.32;76.11;101813.44;4977832;28;20473;-66
2022/03/03 03:47:39;;;;;;;24.58;11.77;;;;;;;-1.38;75.61;101813.50;5007333;28;20092;-65
2022/03/03 03:50:08;;;;;;;25.08;11.60;;;;;;;-1.41;75.14;101800.19;5007602;28;20476;-74
2022/03/03 03:52:35;;;;;;;25.95;12.25;;;;;;;-1.43;74.89;101806.44;4981137;28;20114;-73
2022/03/03 03:55:01;;;;;;;25.75;11.88;;;;;;;-1.44;75.57;101805.56;5005906;28;20045;-73
2022/03/03 03:57:26;;;;;;;26.70;13.57;;;;;;;-1.46;75.49;101799.31;5003433;28;20034;-73
2022/03/03 03:59:52;;;;;;;27.65;13.88;;;;;;;-1.46;73.94;101804.66;4974881;28;20045;-66
2022/03/03 04:02:17;;;;;;;22.80;11.65;;;;;;;-1.44;74.42;101804.69;4999117;28;20113;-72
2022/03/03 04:04:42;;;;;;;25.90;13.00;;;;;;;-1.46;74.81;101799.31;5000585;28;20096;-65
2022/03/03 04:07:08;;;;;;;27.30;13.80;;;;;;;-1.43;74.29;101810.00;5003444;28;20046;-72
2022/03/03 04:09:33;;;;;;;22.02;11.15;;;;;;;-1.44;74.24;101805.56;5007290;28;20087;-66
2022/03/03 04:11:58;;;;;;;27.33;12.85;;;;;;;-1.43;74.42;101811.78;4994819;28;20080;-71
2022/03/03 04:14:24;;;;;;;23.45;12.18;;;;;;;-1.44;74.60;101805.56;4988389;28;20120;-65
2022/03/03 04:16:49;;;;;;;21.33;11.52;;;;;;;-1.46;74.83;101802.00;5007372;28;20087;-66
2022/03/03 04:19:15;;;;;;;26.15;12.15;;;;;;;-1.48;75.50;101802.91;5005266;28;20489;-68
2022/03/03 04:21:40;;;;;;;25.00;11.82;;;;;;;-1.50;75.63;101802.91;5002264;28;20044;-71
2022/03/03 04:24:06;;;;;;;26.05;11.85;;;;;;;-1.53;76.61;101797.63;5010928;28;20040;-65
2022/03/03 04:26:31;;;;;;;21.35;11.88;;;;;;;-1.59;75.65;101786.97;5005244;28;20025;-65
2022/03/03 04:28:57;;;;;;;22.50;12.40;;;;;;;-1.62;75.81;101784.34;4992056;28;20513;-66
2022/03/03 04:31:23;;;;;;;20.08;12.00;;;;;;;-1.64;76.73;101786.13;5005657;28;20042;-72
2022/03/03 04:33:48;;;;;;;24.80;11.45;;;;;;;-1.69;77.12;101780.81;5010113;28;20061;-71
2022/03/03 04:36:14;;;;;;;21.98;11.25;;;;;;;-1.73;76.85;101779.06;4993949;28;20022;-66
2022/03/03 04:38:39;;;;;;;26.95;12.45;;;;;;;-1.69;76.58;101774.59;4982540;28;20504;-70
2022/03/03 04:41:05;;;;;;;27.25;11.63;;;;;;;-1.68;76.75;101776.38;5000171;28;20038;-70
2022/03/03 04:43:30;;;;;;;24.70;11.95;;;;;;;-1.72;77.41;101771.97;5001719;28;20039;-65
2022/03/03 04:45:55;;;;;;;22.50;10.80;;;;;;;-1.78;77.22;101775.53;4989967;28;20040;-71
2022/03/03 04:48:29;;;;;;;22.05;11.40;;;;;;;-1.83;77.57;101772.91;5010382;28;20076;-71
2022/03/03 04:50:54;;;;;;;22.95;11.35;;;;;;;-1.88;77.84;101764.06;5000468;28;20035;-71
2022/03/03 04:53:20;;;;;;;21.63;11.85;;;;;;;-1.88;77.72;101766.72;4994977;28;20049;-71
2022/03/03 04:55:45;;;;;;;25.33;12.05;;;;;;;-1.88;77.55;101757.84;4997923;28;20025;-69
2022/03/03 04:58:10;;;;;;;25.90;12.75;;;;;;;-1.88;77.15;101764.06;4988470;28;20496;-71
2022/03/03 05:00:36;;;;;;;26.17;12.15;;;;;;;-1.87;77.73;101770.28;4981014;28;20486;-65
2022/03/03 05:03:01;;;;;;;23.10;12.75;;;;;;;-1.90;78.11;101771.19;4990037;28;20477;-71
2022/03/03 05:05:26;;;;;;;22.83;11.85;;;;;;;-1.92;78.17;101775.63;4987911;28;20457;-69
2022/03/03 05:07:52;;;;;;;26.73;11.90;;;;;;;-1.92;77.24;101778.28;4989259;28;20482;-65
2022/03/03 05:10:17;;;;;;;27.52;13.02;;;;;;;-1.93;78.02;101776.53;4987475;28;20486;-70
2022/03/03 05:12:43;;;;;;;23.92;12.65;;;;;;;-1.92;78.02;101778.28;4988811;28;20034;-65
2022/03/03 05:15:08;;;;;;;23.02;12.05;;;;;;;-1.94;77.40;101774.78;4981334;28;20502;-70
2022/03/03 05:17:34;;;;;;;25.65;12.10;;;;;;;-1.93;77.65;101775.66;4988520;28;20065;-70
2022/03/03 05:19:59;;;;;;;21.85;11.25;;;;;;;-1.95;77.49;101773.00;4988618;28;20045;-65
2022/03/03 05:22:24;;;;;;;25.63;13.57;;;;;;;-1.94;77.02;101772.09;4985789;28;20042;-67
2022/03/03 05:24:52;;;;;;;27.65;13.95;;;;;;;-1.96;77.84;101773.91;4990399;28;20026;-71
2022/03/03 05:27:18;;;;;;;32.05;13.25;;;;;;;-1.92;77.53;101780.97;4982348;28;20034;-65
2022/03/03 05:29:43;;;;;;;26.65;13.80;;;;;;;-1.89;77.08;101778.28;4983808;28;20026;-71
2022/03/03 05:32:08;;;;;;;24.23;12.60;;;;;;;-1.86;76.78;101774.72;4987970;28;20049;-64
2022/03/03 05:34:34;;;;;;;27.20;13.10;;;;;;;-1.86;76.65;101783.63;4989207;28;20121;-65
2022/03/03 05:37:00;;;;;;;27.10;12.30;;;;;;;-1.86;77.17;101778.28;4986867;28;20065;-70
2022/03/03 05:39:27;;;;;;;30.05;13.23;;;;;;;-1.91;77.14;101780.09;4999610;28;20084;-65
2022/03/03 05:41:54;;;;;;;25.60;12.43;;;;;;;-1.90;77.32;101788.97;5008388;28;20097;-69
2022/03/03 05:44:20;;;;;;;26.35;11.88;;;;;;;-1.94;78.36;101782.78;4992348;28;20023;-70
2022/03/03 05:46:47;;;;;;;30.05;13.32;;;;;;;-1.99;78.54;101783.69;4997667;28;20500;-65
2022/03/03 05:49:12;;;;;;;27.73;12.43;;;;;;;-2.04;77.74;101790.84;5007910;28;20037;-70
2022/03/03 05:51:37;;;;;;;27.85;12.60;;;;;;;-2.07;78.74;101789.06;4987971;28;20046;-65
2022/03/03 05:54:03;;;;;;;27.45;13.05;;;;;;;-2.12;78.03;101778.41;4986345;28;20477;-65
2022/03/03 05:56:32;;;;;;;24.20;12.63;;;;;;;-2.08;76.73;101780.19;4992608;28;20042;-71
2022/03/03 05:59:05;;;;;;;25.45;12.70;;;;;;;-2.09;77.12;101781.09;4992862;28;20034;-71
2022/03/03 06:01:31;;;;;;;25.85;12.25;;;;;;;-2.11;77.28;101785.50;4988422;28;20042;-70
2022/03/03 06:04:00;;;;;;;31.55;13.05;;;;;;;-2.12;78.37;101781.09;4985832;28;20046;-65
2022/03/03 06:06:28;;;;;;;26.35;13.00;;;;;;;-2.11;78.00;101787.31;4992794;28;20057;-70
2022/03/03 06:09:14;;;;;;;21.48;11.27;;;;;;;-2.13;76.83;101771.31;5004324;28;20041;-65
2022/03/03 06:11:48;;;;;;;24.08;12.48;;;;;;;-2.14;77.34;101774.88;4997455;28;20064;-70
2022/03/03 06:14:21;;;;;;;21.92;11.80;;;;;;;-2.15;78.25;101772.22;4986090;28;20104;-69
2022/03/03 06:16:47;;;;;;;;;;;;;;;-2.15;76.11;101774.88;4979285;28;20401;-65
2022/03/03 06:19:13;;;;;;;23.05;11.70;;;;;;;-2.18;79.19;101777.56;4980476;28;19977;-71
2022/03/03 06:21:39;;;;;;;24.48;12.70;;;;;;;-2.22;78.72;101779.38;4987688;28;20070;-70
2022/03/03 06:24:05;;;;;;;26.15;11.90;;;;;;;-2.28;79.03;101773.19;4989095;28;20535;-72
2022/03/03 06:26:30;;;;;;;26.75;13.27;;;;;;;-2.32;80.20;101772.31;4983745;28;20528;-66
2022/03/03 06:28:57;;;;;;;23.83;11.32;;;;;;;-2.37;80.86;101772.34;4972812;28;20030;-70
2022/03/03 06:31:25;;;;;;;24.45;11.13;;;;;;;-2.42;80.53;101779.47;4987423;28;20046;-65
2022/03/03 06:33:51;;;;;;;22.60;12.27;;;;;;;-2.44;80.71;101788.34;4988206;28;20096;-65
2022/03/03 06:36:16;;;;;;;29.30;12.73;;;;;;;-2.43;80.08;101790.09;4983800;28;20038;-66
2022/03/03 06:38:42;;;;;;;24.50;12.88;;;;;;;-2.44;79.90;101775.03;4992691;28;20405;-70
2022/03/03 06:41:07;;;;;;;25.65;13.05;;;;;;;-2.40;79.34;101779.44;5008674;28;20044;-71
2022/03/03 06:43:34;;;;;;;33.47;12.85;;;;;;;-2.41;79.78;101780.34;4982127;28;20481;-70
2022/03/03 06:45:59;;;;;;;31.00;13.65;;;;;;;-2.41;80.78;101785.69;4968263;28;20043;-65
2022/03/03 06:48:25;;;;;;;28.70;12.13;;;;;;;-2.40;81.15;101790.09;4983986;28;20042;-65
2022/03/03 06:50:52;;;;;;;29.45;13.95;;;;;;;-2.38;80.79;101791.88;4980981;28;20023;-69
2022/03/03 06:53:30;;;;;;;31.98;13.93;;;;;;;-2.34;80.18;101793.63;4992006;28;20379;-68
2022/03/03 06:56:03;;;;;;;28.65;13.10;;;;;;;-2.28;80.13;101795.41;4978320;28;20037;-65
2022/03/03 06:58:30;;;;;;;28.50;14.82;;;;;;;-2.23;80.06;101803.38;4978651;28;20038;-65
2022/03/03 07:00:56;;;;;;;28.80;13.65;;;;;;;-2.18;80.27;101793.56;4982629;28;20034;-65
2022/03/03 07:03:24;;;;;;;31.73;14.20;;;;;;;-2.13;80.20;101797.97;4987041;28;20019;-71
2022/03/03 07:05:51;;;;;;;28.10;13.95;;;;;;;-2.08;79.81;101798.84;4984268;28;20038;-65
2022/03/03 07:08:18;;;;;;;32.00;13.80;;;;;;;-2.01;79.89;101797.00;4987413;28;20030;-71
2022/03/03 07:10:46;;;;;;;26.45;14.10;;;;;;;-1.96;79.95;101800.56;4986507;28;20125;-66
2022/03/03 07:13:14;;;;;;;27.48;13.55;;;;;;;-1.87;80.03;101800.47;4995867;28;20088;-65
2022/03/03 07:15:46;;;;;;;32.15;14.45;;;;;;;-1.78;80.55;101812.00;4994175;28;20029;-65
2022/03/03 07:18:16;;;;;;;32.20;13.90;;;;;;;-1.68;80.14;101808.38;4974963;28;20378;-71
2022/03/03 07:20:52;;;;;;;30.25;13.70;;;;;;;-1.27;78.71;101812.53;4980182;28;20496;-66
2022/03/03 07:23:28;;;;;;;27.60;12.45;;;;;;;-0.59;77.94;101801.19;4985407;28;20449;-66
2022/03/03 07:25:59;;;;;;;28.23;14.43;;;;;;;-0.11;76.16;101800.59;4983708;28;20042;-71
2022/03/03 07:28:27;;;;;;;28.48;14.18;;;;;;;0.41;76.03;101798.06;4983333;28;20118;-70
2022/03/03 07:30:54;;;;;;;28.42;14.55;;;;;;;1.47;72.37;101796.25;4980321;28;20038;-71
2022/03/03 07:33:32;;;;;;;28.77;13.55;;;;;;;2.57;68.71;101806.41;4990014;28;20048;-68
2022/03/03 07:35:57;;;;;;;26.33;13.60;;;;;;;3.43;64.57;101808.63;4982381;28;20062;-71
2022/03/03 07:38:37;;;;;;;29.27;13.07;;;;;;;4.24;61.25;101802.69;4998110;28;20066;-65
2022/03/03 07:41:03;;;;;;;23.80;12.52;;;;;;;4.94;58.90;101792.31;4988058;28;20042;-72
2022/03/03 07:43:29;;;;;;;24.10;12.82;;;;;;;5.76;56.76;101793.03;4978970;28;20038;-67
2022/03/03 07:45:54;;;;;;;26.88;13.05;;;;;;;6.33;53.57;101791.75;4976667;28;20073;-71
2022/03/03 07:48:23;;;;;;;25.08;12.30;;;;;;;6.10;53.56;101790.84;4980768;28;20030;-71
2022/03/03 07:50:48;;;;;;;22.90;13.20;;;;;;;5.90;54.33;101796.09;4982881;28;20100;-66
2022/03/03 07:53:14;;;;;;;24.75;12.65;;;;;;;5.38;55.25;101796.19;4970098;28;20034;-72
2022/03/03 07:55:46;;;;;;;21.85;13.02;;;;;;;5.14;56.37;101798.88;4988781;28;20034;-71
2022/03/03 07:58:14;;;;;;;24.98;12.45;;;;;;;4.82;56.40;101798.16;4988916;28;20038;-66
2022/03/03 08:00:46;;;;;;;27.05;13.63;;;;;;;4.26;56.56;101803.53;4978391;28;20042;-66
2022/03/03 08:03:15;;;;;;;29.55;13.55;;;;;;;3.77;58.81;101805.88;4991128;28;20030;-66
2022/03/03 08:05:43;;;;;;;26.08;14.25;;;;;;;3.49;59.39;101807.56;4992156;28;20665;-66
2022/03/03 08:08:12;;;;;;;24.70;13.68;;;;;;;3.37;59.12;101816.00;4983662;28;20038;-66
2022/03/03 08:10:40;;;;;;;25.90;14.05;;;;;;;3.27;60.52;101820.75;4996438;28;20031;-72
2022/03/03 08:13:09;;;;;;;31.67;15.63;;;;;;;3.17;60.22;101820.13;4987913;28;20499;-66
2022/03/03 08:15:38;;;;;;;24.40;14.35;;;;;;;3.13;60.41;101817.53;4988370;28;20117;-71
2022/03/03 08:18:04;;;;;;;25.73;13.45;;;;;;;3.05;61.07;101813.22;4990051;28;20049;-66
2022/03/03 08:20:30;;;;;;;22.88;13.50;;;;;;;3.10;61.42;101818.50;4980381;28;20049;-68
2022/03/03 08:22:59;;;;;;;24.73;13.13;;;;;;;3.10;61.77;101812.22;4986171;28;20121;-72
2022/03/03 08:25:25;;;;;;;19.90;12.65;;;;;;;3.12;61.18;101805.00;4988961;28;20046;-67
2022/03/03 08:27:53;;;;;;;23.10;12.57;;;;;;;3.16;60.25;101804.88;4988617;28;20059;-65
2022/03/03 08:30:18;;;;;;;25.45;13.07;;;;;;;3.19;60.38;101802.13;4979252;28;20501;-66
2022/03/03 08:33:08;;;;;;;24.30;13.13;;;;;;;3.28;61.39;101803.69;4988945;28;20066;-72
2022/03/03 08:35:36;;;;;;;22.08;12.20;;;;;;;3.40;60.01;101805.13;4978646;28;20038;-71
2022/03/03 08:38:24;;;;;;;21.42;12.82;;;;;;;3.50;60.60;101802.19;4986344;28;20066;-71
2022/03/03 08:40:51;;;;;;;22.55;12.40;;;;;;;3.60;59.60;101802.81;4984731;28;20052;-72
2022/03/03 08:43:20;;;;;;;23.95;12.30;;;;;;;3.70;59.42;101803.41;5004506;28;20050;-66
2022/03/03 08:45:48;;;;;;;24.20;12.57;;;;;;;3.83;59.32;101796.75;4990136;28;20022;-69
2022/03/03 08:48:15;;;;;;;22.60;12.45;;;;;;;3.97;58.31;101805.31;4992413;28;20062;-72
2022/03/03 08:50:42;;;;;;;23.40;12.60;;;;;;;4.13;57.65;101799.47;4981293;28;20033;-71
2022/03/03 08:53:09;;;;;;;26.52;13.35;;;;;;;4.29;58.82;101804.34;4990367;28;20034;-71
2022/03/03 08:55:36;;;;;;;41.83;23.65;;;;;;;4.43;58.95;101801.22;4997462;28;20035;-72
2022/03/03 08:58:03;;;;;;;33.33;19.15;;;;;;;4.53;57.42;101804.50;4995493;28;20106;-71
2022/03/03 09:00:30;;;;;;;39.50;18.23;;;;;;;4.59;57.08;101797.09;4983305;28;20093;-72
2022/03/03 09:02:57;;;;;;;28.73;15.60;;;;;;;4.71;56.85;101805.69;4984826;28;20068;-72
2022/03/03 09:05:22;;;;;;;34.60;19.58;;;;;;;4.81;58.15;101796.41;4989758;28;20058;-66
2022/03/03 09:07:47;;;;;;;27.65;14.13;;;;;;;4.97;56.88;101807.53;4978257;28;20033;-71
2022/03/03 09:10:14;;;;;;;26.45;15.48;;;;;;;5.02;55.85;101806.44;4999709;28;20543;-69
2022/03/03 09:12:40;;;;;;;28.50;15.93;;;;;;;5.07;56.56;101804.47;4995542;28;20433;-72
2022/03/03 09:15:07;;;;;;;27.30;15.10;;;;;;;5.24;57.30;101811.09;4977407;28;20030;-72
2022/03/03 09:17:33;;;;;;;22.00;13.05;;;;;;;5.33;55.96;101811.66;4987282;28;20126;-69
2022/03/03 09:20:02;;;;;;;21.70;12.85;;;;;;;5.46;53.11;101814.81;4985320;28;20034;-67
2022/03/03 09:22:28;;;;;;;54.60;28.60;;;;;;;5.63;55.98;101811.50;4986642;28;20062;-66
2022/03/03 09:24:54;;;;;;;30.08;15.57;;;;;;;5.82;54.25;101796.38;4987547;28;20066;-72
2022/03/03 09:27:19;;;;;;;23.60;11.77;;;;;;;5.90;53.46;101804.19;4982051;28;20502;-72
2022/03/03 09:29:45;;;;;;;20.60;12.75;;;;;;;6.01;53.92;101799.28;4976494;28;20030;-68
2022/03/03 09:32:12;;;;;;;23.15;12.27;;;;;;;6.16;53.48;101795.16;4989738;28;20081;-72
2022/03/03 09:34:38;;;;;;;25.17;12.73;;;;;;;6.26;52.70;101798.38;4986025;28;20049;-73
2022/03/03 09:37:03;;;;;;;24.20;13.10;;;;;;;6.26;53.22;101795.66;4969898;28;20027;-68
2022/03/03 09:39:28;;;;;;;25.48;12.57;;;;;;;6.34;53.59;101794.44;4987466;28;20093;-70
2022/03/03 09:41:54;;;;;;;22.67;12.90;;;;;;;6.50;54.14;101786.56;5003266;28;20041;-67
2022/03/03 09:44:24;;;;;;;23.10;13.13;;;;;;;6.72;55.11;101791.13;4996675;28;20097;-70
2022/03/03 09:46:49;;;;;;;24.20;12.63;;;;;;;6.65;52.18;101788.63;4997175;28;20153;-69
2022/03/03 09:49:16;;;;;;;19.25;11.43;;;;;;;6.61;49.07;101786.13;5007293;28;20025;-71
2022/03/03 09:51:41;;;;;;;21.50;12.63;;;;;;;6.77;52.37;101786.41;4988264;28;20042;-73
2022/03/03 09:54:07;;;;;;;26.15;13.15;;;;;;;6.82;51.54;101793.38;5005193;28;20040;-73
2022/03/03 09:56:33;;;;;;;20.40;11.18;;;;;;;6.69;48.97;101788.53;4986661;28;20041;-68
2022/03/03 09:58:58;;;;;;;22.27;11.93;;;;;;;6.63;50.15;101790.53;4985280;28;20447;-68
2022/03/03 10:01:31;;;;;;;21.40;12.02;;;;;;;6.79;51.00;101785.38;4980500;28;20030;-73
2022/03/03 10:04:24;;;;;;;27.70;12.55;;;;;;;7.09;50.50;101785.03;4987040;28;20038;-74
2022/03/03 10:06:50;;;;;;;22.42;11.18;;;;;;;7.20;47.89;101782.75;4975652;28;20055;-74
2022/03/03 10:09:16;;;;;;;20.25;11.20;;;;;;;7.48;51.44;101790.53;4988503;28;20398;-72
2022/03/03 10:11:47;;;;;;;22.35;13.10;;;;;;;7.59;48.74;101782.78;4990110;28;20038;-68
2022/03/03 10:14:14;;;;;;;21.95;13.10;;;;;;;7.70;48.38;101776.91;4980517;28;20132;-69
2022/03/03 10:16:47;;;;;;;25.52;12.75;;;;;;;7.76;48.24;101783.88;4976745;28;20026;-72
2022/03/03 10:19:12;;;;;;;23.67;12.95;;;;;;;7.97;47.00;101772.03;4986544;28;20485;-74
2022/03/03 10:21:38;;;;;;;25.45;13.00;;;;;;;7.98;48.45;101772.94;4986419;28;20049;-75
2022/03/03 10:24:24;;;;;;;20.95;12.38;;;;;;;8.08;47.78;101774.25;4986705;28;20430;-75
2022/03/03 10:27:00;;;;;;;21.67;12.60;;;;;;;8.27;47.58;101777.84;4988631;28;20429;-74
2022/03/03 10:29:26;;;;;;;49.30;24.95;;;;;;;8.46;47.80;101771.56;4982313;28;20039;-68
2022/03/03 10:31:53;;;;;;;21.50;12.80;;;;;;;8.49;44.51;101769.59;4986312;28;20378;-74
2022/03/03 10:34:26;;;;;;;21.45;11.60;;;;;;;8.49;44.79;101764.16;4987119;28;20069;-76
2022/03/03 10:37:09;;;;;;;24.67;12.23;;;;;;;8.36;44.75;101761.16;4975439;28;20026;-68
2022/03/03 10:39:42;;;;;;;26.20;12.73;;;;;;;8.34;45.87;101752.19;4983985;28;20042;-76
2022/03/03 10:42:19;;;;;;;25.25;12.98;;;;;;;8.43;46.65;101756.31;4986593;28;20125;-68
2022/03/03 10:44:45;;;;;;;20.33;10.40;;;;;;;8.49;43.65;101766.00;4981992;28;20430;-74
2022/03/03 10:47:13;;;;;;;22.83;11.30;;;;;;;8.61;44.49;101760.81;4984111;28;20042;-75
2022/03/03 10:49:41;;;;;;;23.83;11.98;;;;;;;8.92;43.05;101753.88;4978397;28;20030;-74
2022/03/03 10:52:13;;;;;;;28.48;15.05;;;;;;;9.14;42.83;101754.53;4981948;28;20042;-76
2022/03/03 10:54:49;;;;;;;20.75;11.68;;;;;;;9.30;41.28;101742.88;4986032;28;20448;-68
2022/03/03 10:57:41;;;;;;;19.08;10.75;;;;;;;9.39;42.28;101753.25;4979298;28;20073;-76
2022/03/03 11:00:09;;;;;;;26.73;15.32;;;;;;;9.53;41.36;101747.06;4972329;28;20120;-75
2022/03/03 11:02:36;;;;;;;26.25;14.10;;;;;;;9.54;40.36;101746.97;4980555;28;20478;-69
2022/03/03 11:05:02;;;;;;;23.73;14.68;;;;;;;9.79;40.57;101749.28;4982052;28;20068;-74
2022/03/03 11:07:29;;;;;;;31.45;18.85;;;;;;;9.79;39.86;101745.63;4978632;28;20093;-74
2022/03/03 11:09:55;;;;;;;23.95;12.73;;;;;;;9.83;41.10;101745.38;4983414;28;20037;-68
2022/03/03 11:12:21;;;;;;;23.63;13.70;;;;;;;10.02;41.53;101749.81;4980873;28;20129;-76
2022/03/03 11:14:47;;;;;;;18.55;10.88;;;;;;;10.28;39.74;101749.28;4977688;28;20042;-68